»·PEaware :: N335AK KSDL-KRIF

N335AK :: KSDL-KRIF

FLIGHT INFORMATION

Flight Status: Arrived
Operator: Privately registered:
United States
More flights under this callsign
Pilot: Gabor H. (24209)
Aircraft: Unknown
(EPIC)
More flights by this aircraft type
Origin: KSDL Scottsdale
United States
Destination: KRIF Richfield Mun
United States
More flights between these airports :: More routes between these airports
Route: +
File this flight plan on PilotEdge
Remarks:
Altitude:
(Current/Filed)
16,500ft
Speed:
(Current/Filed)
0kts
Departed: 29-Jul-20 01:53 PM
Arrived: 29-Jul-20 02:52 PM
Distance/Time
Traveled:
307nm/0:58
Distance/Time
To Go:
Arrived

Flight Plot

Page will automatically refresh every two minutes.

Flight plan parsing failed; only flown route is shown


Map Options




Map Legend


Flown Route
Filed Route
Departure Airport
Arrival Airport
Navaid (VOR, NDB)
Fix

Horizontal Profiles

Position Reports

Time Latitude Longitude Heading Altitude Ground
Speed
29-Jul-20 13:51 33.797020 -111.793748 35 6239ft 247kts
29-Jul-20 13:52 33.849608 -111.745983 35 9640ft 240kts
29-Jul-20 13:53 33.903628 -111.697259 35 12319ft 248kts
29-Jul-20 13:54 33.963294 -111.660643 347 14301ft 253kts
29-Jul-20 13:55 34.033645 -111.671385 352 16045ft 259kts
29-Jul-20 13:56 34.108705 -111.680792 352 16728ft 290kts
29-Jul-20 13:57 34.192390 -111.691233 352 16771ft 312kts
29-Jul-20 13:58 34.279771 -111.702168 352 16809ft 319kts
29-Jul-20 13:59 34.368212 -111.713263 352 16799ft 321kts
29-Jul-20 14:00 34.457223 -111.724455 352 16787ft 322kts
29-Jul-20 14:01 34.546099 -111.735652 352 16777ft 322kts
29-Jul-20 14:03 34.635524 -111.746950 352 16530ft 329kts
29-Jul-20 14:04 34.726459 -111.758450 352 16325ft 326kts
29-Jul-20 14:05 34.815914 -111.769798 352 16325ft 323kts
29-Jul-20 14:06 34.905395 -111.781165 353 16311ft 321kts
29-Jul-20 14:07 34.993583 -111.792384 351 16332ft 319kts
29-Jul-20 14:08 35.082137 -111.803713 350 16369ft 321kts
29-Jul-20 14:09 35.171290 -111.815123 350 16456ft 321kts
29-Jul-20 14:10 35.259917 -111.826488 350 16500ft 322kts
29-Jul-20 14:11 35.349114 -111.837950 350 16500ft 323kts
29-Jul-20 14:12 35.438484 -111.849461 350 16484ft 324kts
29-Jul-20 14:13 35.528091 -111.861028 351 16465ft 324kts
29-Jul-20 14:14 35.617473 -111.872592 350 16468ft 323kts
29-Jul-20 14:15 35.706795 -111.884175 351 16472ft 323kts
29-Jul-20 14:16 35.796184 -111.895791 350 16505ft 322kts
29-Jul-20 14:17 35.885380 -111.907411 350 16509ft 323kts
29-Jul-20 14:18 35.974615 -111.919060 350 16509ft 323kts
29-Jul-20 14:19 36.064198 -111.930782 350 16509ft 323kts
29-Jul-20 14:20 36.153665 -111.942516 350 16509ft 323kts
29-Jul-20 14:20 36.228375 -111.952335 350 16509ft 323kts
29-Jul-20 14:22 36.332556 -111.966059 350 16507ft 323kts
29-Jul-20 14:22 36.407108 -111.975902 351 16462ft 324kts
29-Jul-20 14:23 36.496801 -111.987769 351 16417ft 324kts
29-Jul-20 14:24 36.586615 -111.999681 351 16377ft 324kts
29-Jul-20 14:26 36.691371 -112.013609 351 16345ft 324kts
29-Jul-20 14:26 36.765840 -112.023534 351 16349ft 324kts
29-Jul-20 14:27 36.855090 -112.035454 351 16354ft 323kts
29-Jul-20 14:28 36.944465 -112.047418 351 16358ft 323kts
29-Jul-20 14:29 37.033902 -112.059420 351 16363ft 323kts
29-Jul-20 14:30 37.123585 -112.071483 351 16367ft 323kts
29-Jul-20 14:31 37.212622 -112.083486 351 16462ft 322kts
29-Jul-20 14:32 37.301431 -112.095489 351 16543ft 322kts
29-Jul-20 14:33 37.390728 -112.107586 351 16547ft 323kts
29-Jul-20 14:34 37.479744 -112.119674 351 16554ft 323kts
29-Jul-20 14:35 37.569171 -112.131847 351 16554ft 323kts
29-Jul-20 14:36 37.658740 -112.144067 351 16554ft 324kts
29-Jul-20 14:37 37.748064 -112.156285 351 16554ft 324kts
29-Jul-20 14:38 37.837445 -112.168535 351 16554ft 324kts
29-Jul-20 14:39 37.929387 -112.181175 351 15514ft 345kts
29-Jul-20 14:40 38.017882 -112.193353 351 14099ft 303kts
29-Jul-20 14:41 38.098777 -112.204541 351 13154ft 287kts
29-Jul-20 14:42 38.180641 -112.215874 352 12863ft 306kts
29-Jul-20 14:43 38.265271 -112.222165 2 12548ft 308kts
29-Jul-20 14:44 38.349542 -112.216561 1 11765ft 291kts
29-Jul-20 14:45 38.426605 -112.211626 1 10565ft 268kts
29-Jul-20 14:46 38.500784 -112.207358 1 9428ft 270kts
29-Jul-20 14:47 38.575833 -112.189502 11 8245ft 270kts
29-Jul-20 14:48 38.641646 -112.161068 35 6969ft 220kts
29-Jul-20 14:49 38.691379 -112.128362 24 6142ft 196kts
29-Jul-20 14:50 38.727342 -112.105924 24 5320ft 105kts
29-Jul-20 14:51 38.737676 -112.097796 21 5281ft 23kts
29-Jul-20 14:52 38.741691 -112.095179 25 5279ft 2kts
29-Jul-20 14:53 38.743756 -112.096801 36 5284ft 13kts
29-Jul-20 14:54 38.744642 -112.096666 6 5295ft 0kts
29-Jul-20 14:55 38.744642 -112.096666 6 5295ft 0kts
29-Jul-20 14:56 38.744642 -112.096666 6 5295ft 0kts

Navigation Log

Ident Type
Flight plan parsing failed, navigation log unavailable